sensor_id;sensor_type;location;lat;lon;timestamp;pressure;altitude;pressure_sealevel;temperature;humidity
63343;BME280;49465;57.664;39.686;2023-12-20T00:01:09;98124.53;;;5.94;58.42
63343;BME280;49465;57.664;39.686;2023-12-20T00:03:35;98124.94;;;6.22;57.40
63343;BME280;49465;57.664;39.686;2023-12-20T00:06:02;98133.56;;;6.23;56.79
63343;BME280;49465;57.664;39.686;2023-12-20T00:08:28;98122.31;;;6.33;56.56
63343;BME280;49465;57.664;39.686;2023-12-20T00:10:54;98123.28;;;6.21;56.89
63343;BME280;49465;57.664;39.686;2023-12-20T00:13:21;98122.09;;;6.25;57.07
63343;BME280;49465;57.664;39.686;2023-12-20T00:15:49;98123.31;;;6.42;56.42
63343;BME280;49465;57.664;39.686;2023-12-20T00:18:18;98128.97;;;6.47;56.66
63343;BME280;49465;57.664;39.686;2023-12-20T00:20:45;98132.16;;;6.19;56.76
63343;BME280;49465;57.664;39.686;2023-12-20T00:23:14;98131.44;;;6.28;56.30
63343;BME280;49465;57.664;39.686;2023-12-20T00:25:49;98129.59;;;6.40;56.91
63343;BME280;49465;57.664;39.686;2023-12-20T00:28:15;98133.03;;;6.08;57.00
63343;BME280;49465;57.664;39.686;2023-12-20T00:30:42;98136.44;;;6.20;56.80
63343;BME280;49465;57.664;39.686;2023-12-20T00:33:11;98136.25;;;6.32;56.39
63343;BME280;49465;57.664;39.686;2023-12-20T00:35:40;98138.75;;;6.23;56.73
63343;BME280;49465;57.664;39.686;2023-12-20T00:38:06;98136.06;;;6.24;56.45
63343;BME280;49465;57.664;39.686;2023-12-20T00:40:35;98129.44;;;6.20;56.51
63343;BME280;49465;57.664;39.686;2023-12-20T00:43:03;98143.56;;;6.06;57.10
63343;BME280;49465;57.664;39.686;2023-12-20T00:45:33;98135.16;;;6.14;57.22
63343;BME280;49465;57.664;39.686;2023-12-20T00:48:01;98133.94;;;6.18;57.04
63343;BME280;49465;57.664;39.686;2023-12-20T00:50:28;98127.38;;;6.03;56.92
63343;BME280;49465;57.664;39.686;2023-12-20T00:53:03;98122.84;;;6.16;57.11
63343;BME280;49465;57.664;39.686;2023-12-20T00:55:29;98116.63;;;5.96;57.10
63343;BME280;49465;57.664;39.686;2023-12-20T00:57:58;98117.94;;;5.79;57.85
63343;BME280;49465;57.664;39.686;2023-12-20T01:00:28;98115.44;;;5.89;57.30
63343;BME280;49465;57.664;39.686;2023-12-20T01:03:03;98116.00;;;5.92;57.89
63343;BME280;49465;57.664;39.686;2023-12-20T01:05:29;98121.00;;;5.96;57.05
63343;BME280;49465;57.664;39.686;2023-12-20T01:07:59;98118.72;;;6.13;56.87
63343;BME280;49465;57.664;39.686;2023-12-20T01:10:26;98122.41;;;6.00;56.90
63343;BME280;49465;57.664;39.686;2023-12-20T01:12:55;98120.88;;;5.97;57.07
63343;BME280;49465;57.664;39.686;2023-12-20T01:15:24;98125.31;;;6.18;56.26
63343;BME280;49465;57.664;39.686;2023-12-20T01:17:54;98135.38;;;6.11;56.78
63343;BME280;49465;57.664;39.686;2023-12-20T01:20:25;98133.44;;;6.24;56.07
63343;BME280;49465;57.664;39.686;2023-12-20T01:22:57;98135.06;;;6.04;57.14
63343;BME280;49465;57.664;39.686;2023-12-20T01:25:28;98138.81;;;6.44;56.43
63343;BME280;49465;57.664;39.686;2023-12-20T01:27:59;98142.38;;;6.10;56.39
63343;BME280;49465;57.664;39.686;2023-12-20T01:30:31;98141.28;;;6.13;56.49
63343;BME280;49465;57.664;39.686;2023-12-20T01:33:09;98149.53;;;6.29;56.36
63343;BME280;49465;57.664;39.686;2023-12-20T01:35:38;98144.84;;;6.12;56.61
63343;BME280;49465;57.664;39.686;2023-12-20T01:38:07;98139.78;;;5.99;56.39
63343;BME280;49465;57.664;39.686;2023-12-20T01:40:45;98139.34;;;6.26;56.66
63343;BME280;49465;57.664;39.686;2023-12-20T01:43:11;98133.84;;;6.08;55.92
63343;BME280;49465;57.664;39.686;2023-12-20T01:45:38;98133.75;;;5.99;56.33
63343;BME280;49465;57.664;39.686;2023-12-20T01:48:05;98136.00;;;6.03;56.18
63343;BME280;49465;57.664;39.686;2023-12-20T01:50:36;98135.97;;;6.14;56.11
63343;BME280;49465;57.664;39.686;2023-12-20T01:53:12;98132.50;;;6.25;55.54
63343;BME280;49465;57.664;39.686;2023-12-20T01:55:40;98125.75;;;6.23;56.04
63343;BME280;49465;57.664;39.686;2023-12-20T01:58:10;98126.34;;;6.26;55.77
63343;BME280;49465;57.664;39.686;2023-12-20T02:00:46;98120.91;;;6.50;55.24
63343;BME280;49465;57.664;39.686;2023-12-20T02:03:12;98117.75;;;6.14;55.66
63343;BME280;49465;57.664;39.686;2023-12-20T02:05:41;98118.72;;;6.13;55.44
63343;BME280;49465;57.664;39.686;2023-12-20T02:08:10;98120.31;;;6.26;55.32
63343;BME280;49465;57.664;39.686;2023-12-20T02:10:37;98111.84;;;6.12;55.25
63343;BME280;49465;57.664;39.686;2023-12-20T02:13:06;98118.22;;;6.20;55.04
63343;BME280;49465;57.664;39.686;2023-12-20T02:15:32;98112.22;;;6.08;54.91
63343;BME280;49465;57.664;39.686;2023-12-20T02:17:59;98112.22;;;6.08;55.17
63343;BME280;49465;57.664;39.686;2023-12-20T02:20:28;98116.31;;;6.22;55.29
63343;BME280;49465;57.664;39.686;2023-12-20T02:22:58;98126.56;;;6.23;54.96
63343;BME280;49465;57.664;39.686;2023-12-20T02:25:27;98118.72;;;6.13;55.67
63343;BME280;49465;57.664;39.686;2023-12-20T02:27:56;98110.94;;;6.02;55.02
63343;BME280;49465;57.664;39.686;2023-12-20T02:30:24;98108.72;;;5.86;55.69
63343;BME280;49465;57.664;39.686;2023-12-20T02:32:52;98110.81;;;5.92;55.77
63343;BME280;49465;57.664;39.686;2023-12-20T02:35:21;98107.50;;;6.02;55.71
63343;BME280;49465;57.664;39.686;2023-12-20T02:37:51;98112.56;;;6.03;55.53
63343;BME280;49465;57.664;39.686;2023-12-20T02:40:19;98104.34;;;5.98;55.63
63343;BME280;49465;57.664;39.686;2023-12-20T02:42:45;98101.13;;;5.83;55.40
63343;BME280;49465;57.664;39.686;2023-12-20T02:45:15;98109.56;;;5.64;55.83
63343;BME280;49465;57.664;39.686;2023-12-20T02:47:41;98109.06;;;5.82;55.46
63343;BME280;49465;57.664;39.686;2023-12-20T02:50:08;98115.34;;;5.57;56.32
63343;BME280;49465;57.664;39.686;2023-12-20T02:52:34;98106.44;;;5.15;57.71
63343;BME280;49465;57.664;39.686;2023-12-20T02:55:00;98103.59;;;5.30;56.88
63343;BME280;49465;57.664;39.686;2023-12-20T02:57:29;98112.06;;;5.54;56.59
63343;BME280;49465;57.664;39.686;2023-12-20T02:59:58;98100.97;;;5.41;56.94
63343;BME280;49465;57.664;39.686;2023-12-20T03:02:27;98097.13;;;5.79;55.55
63343;BME280;49465;57.664;39.686;2023-12-20T03:04:53;98087.03;;;4.97;58.14
63343;BME280;49465;57.664;39.686;2023-12-20T03:07:20;98086.09;;;5.32;56.65
63343;BME280;49465;57.664;39.686;2023-12-20T03:09:46;98081.94;;;5.41;56.73
63343;BME280;49465;57.664;39.686;2023-12-20T03:12:13;98080.19;;;5.41;56.97
63343;BME280;49465;57.664;39.686;2023-12-20T03:14:39;98078.31;;;5.21;56.78
63343;BME280;49465;57.664;39.686;2023-12-20T03:17:05;98077.44;;;5.43;56.80
63343;BME280;49465;57.664;39.686;2023-12-20T03:19:32;98079.81;;;5.23;56.81
63343;BME280;49465;57.664;39.686;2023-12-20T03:21:58;98065.19;;;5.33;57.11
63343;BME280;49465;57.664;39.686;2023-12-20T03:24:27;98076.78;;;5.07;57.59
63343;BME280;49465;57.664;39.686;2023-12-20T03:26:56;98077.13;;;5.36;56.86
63343;BME280;49465;57.664;39.686;2023-12-20T03:29:22;98079.00;;;5.45;56.64
63343;BME280;49465;57.664;39.686;2023-12-20T03:31:51;98068.03;;;5.19;57.31
63343;BME280;49465;57.664;39.686;2023-12-20T03:34:18;98071.47;;;5.08;57.73
63343;BME280;49465;57.664;39.686;2023-12-20T03:36:44;98073.81;;;5.11;57.28
63343;BME280;49465;57.664;39.686;2023-12-20T03:39:13;98075.72;;;4.98;57.36
63343;BME280;49465;57.664;39.686;2023-12-20T03:41:40;98070.25;;;5.35;57.06
63343;BME280;49465;57.664;39.686;2023-12-20T03:44:06;98078.78;;;5.37;56.32
63343;BME280;49465;57.664;39.686;2023-12-20T03:46:32;98078.41;;;5.42;56.82
63343;BME280;49465;57.664;39.686;2023-12-20T03:48:59;98080.31;;;5.28;56.48
63343;BME280;49465;57.664;39.686;2023-12-20T03:51:25;98085.69;;;5.70;55.74
63343;BME280;49465;57.664;39.686;2023-12-20T03:53:51;98078.31;;;5.21;56.49
63343;BME280;49465;57.664;39.686;2023-12-20T03:56:18;98079.22;;;5.65;56.30
63343;BME280;49465;57.664;39.686;2023-12-20T03:58:44;98080.44;;;5.04;57.48
63343;BME280;49465;57.664;39.686;2023-12-20T04:01:10;98081.00;;;5.30;56.48
63343;BME280;49465;57.664;39.686;2023-12-20T04:03:39;98085.84;;;5.35;56.32
63343;BME280;49465;57.664;39.686;2023-12-20T04:06:06;98079.34;;;4.95;58.03
63343;BME280;49465;57.664;39.686;2023-12-20T04:08:32;98084.44;;;4.97;58.03
63343;BME280;49465;57.664;39.686;2023-12-20T04:10:59;98084.69;;;5.05;56.98
63343;BME280;49465;57.664;39.686;2023-12-20T04:13:25;98087.84;;;4.98;57.25
63343;BME280;49465;57.664;39.686;2023-12-20T04:15:51;98090.94;;;5.03;57.77
63343;BME280;49465;57.664;39.686;2023-12-20T04:18:22;98095.19;;;5.38;56.44
63343;BME280;49465;57.664;39.686;2023-12-20T04:20:57;98101.09;;;5.40;55.97
63343;BME280;49465;57.664;39.686;2023-12-20T04:23:26;98094.34;;;5.60;55.78
63343;BME280;49465;57.664;39.686;2023-12-20T04:25:53;98092.47;;;5.39;56.57
63343;BME280;49465;57.664;39.686;2023-12-20T04:28:19;98091.66;;;5.27;56.39
63343;BME280;49465;57.664;39.686;2023-12-20T04:30:51;98088.81;;;5.42;56.22
63343;BME280;49465;57.664;39.686;2023-12-20T04:33:17;98091.28;;;5.21;57.28
63343;BME280;49465;57.664;39.686;2023-12-20T04:35:43;98095.09;;;5.39;56.49
63343;BME280;49465;57.664;39.686;2023-12-20T04:38:11;98090.22;;;5.46;55.82
63343;BME280;49465;57.664;39.686;2023-12-20T04:40:38;98084.06;;;5.47;55.98
63343;BME280;49465;57.664;39.686;2023-12-20T04:43:07;98085.09;;;5.67;55.39
63343;BME280;49465;57.664;39.686;2023-12-20T04:45:37;98084.00;;;5.81;55.46
63343;BME280;49465;57.664;39.686;2023-12-20T04:48:09;98087.44;;;5.81;55.59
63343;BME280;49465;57.664;39.686;2023-12-20T04:50:41;98080.97;;;5.64;55.65
63343;BME280;49465;57.664;39.686;2023-12-20T04:53:08;98091.03;;;5.58;55.21
63343;BME280;49465;57.664;39.686;2023-12-20T04:55:37;98082.66;;;5.43;55.93
63343;BME280;49465;57.664;39.686;2023-12-20T04:58:08;98078.41;;;5.42;55.75
63343;BME280;49465;57.664;39.686;2023-12-20T05:00:43;98076.50;;;5.55;55.89
63343;BME280;49465;57.664;39.686;2023-12-20T05:03:12;98093.06;;;5.31;56.59
63343;BME280;49465;57.664;39.686;2023-12-20T05:05:52;98089.41;;;5.45;55.74
63343;BME280;49465;57.664;39.686;2023-12-20T05:08:22;98101.31;;;5.70;55.48
63343;BME280;49465;57.664;39.686;2023-12-20T05:10:54;98100.13;;;5.63;55.86
63343;BME280;49465;57.664;39.686;2023-12-20T05:13:43;98101.31;;;5.37;55.83
63343;BME280;49465;57.664;39.686;2023-12-20T05:16:15;98096.72;;;5.51;55.85
63343;BME280;49465;57.664;39.686;2023-12-20T05:18:44;98099.75;;;5.57;55.71
63343;BME280;49465;57.664;39.686;2023-12-20T05:21:16;98100.94;;;5.52;55.95
63343;BME280;49465;57.664;39.686;2023-12-20T05:23:45;98102.41;;;5.34;56.48
63343;BME280;49465;57.664;39.686;2023-12-20T05:26:15;98104.28;;;5.32;55.73
63343;BME280;49465;57.664;39.686;2023-12-20T05:28:44;98098.84;;;5.46;56.07
63343;BME280;49465;57.664;39.686;2023-12-20T05:31:10;98089.78;;;5.29;55.73
63343;BME280;49465;57.664;39.686;2023-12-20T05:33:40;98093.91;;;4.98;57.19
63343;BME280;49465;57.664;39.686;2023-12-20T05:36:09;98103.31;;;5.33;56.23
63343;BME280;49465;57.664;39.686;2023-12-20T05:38:40;98098.50;;;5.40;56.20
63343;BME280;49465;57.664;39.686;2023-12-20T05:41:09;98095.66;;;5.20;56.86
63343;BME280;49465;57.664;39.686;2023-12-20T05:43:41;98112.44;;;5.16;56.46
63343;BME280;49465;57.664;39.686;2023-12-20T05:46:13;98118.78;;;5.23;56.25
63343;BME280;49465;57.664;39.686;2023-12-20T05:48:43;98114.81;;;5.08;56.49
63343;BME280;49465;57.664;39.686;2023-12-20T05:51:12;98115.50;;;5.21;56.60
63343;BME280;49465;57.664;39.686;2023-12-20T05:53:44;98109.31;;;4.77;57.65
63343;BME280;49465;57.664;39.686;2023-12-20T05:56:10;98117.66;;;4.58;58.86
63343;BME280;49465;57.664;39.686;2023-12-20T05:58:38;98116.78;;;4.93;57.51
63343;BME280;49465;57.664;39.686;2023-12-20T06:01:05;98119.41;;;5.27;56.91
63343;BME280;49465;57.664;39.686;2023-12-20T06:03:34;98122.47;;;5.21;56.95
63343;BME280;49465;57.664;39.686;2023-12-20T06:06:10;98129.09;;;5.47;56.29
63343;BME280;49465;57.664;39.686;2023-12-20T06:08:36;98125.78;;;5.23;56.54
63343;BME280;49465;57.664;39.686;2023-12-20T06:11:05;98123.06;;;5.13;57.19
63343;BME280;49465;57.664;39.686;2023-12-20T06:13:32;98129.19;;;5.23;57.25
63343;BME280;49465;57.664;39.686;2023-12-20T06:16:01;98125.19;;;5.08;57.15
63343;BME280;49465;57.664;39.686;2023-12-20T06:18:28;98121.75;;;5.07;57.47
63343;BME280;49465;57.664;39.686;2023-12-20T06:20:59;98128.25;;;5.24;56.86
63343;BME280;49465;57.664;39.686;2023-12-20T06:23:29;98130.97;;;5.23;56.99
63343;BME280;49465;57.664;39.686;2023-12-20T06:25:58;98127.19;;;5.27;57.17
63343;BME280;49465;57.664;39.686;2023-12-20T06:28:27;98124.00;;;5.12;57.50
63343;BME280;49465;57.664;39.686;2023-12-20T06:30:59;98134.13;;;4.81;57.79
63343;BME280;49465;57.664;39.686;2023-12-20T06:33:29;98136.75;;;5.26;57.04
63343;BME280;49465;57.664;39.686;2023-12-20T06:35:57;98142.53;;;5.19;57.49
63343;BME280;49465;57.664;39.686;2023-12-20T06:38:29;98144.63;;;4.91;58.54
63343;BME280;49465;57.664;39.686;2023-12-20T06:40:58;98145.38;;;5.04;57.63
63343;BME280;49465;57.664;39.686;2023-12-20T06:43:30;98141.94;;;5.15;57.22
63343;BME280;49465;57.664;39.686;2023-12-20T06:46:11;98148.91;;;5.03;58.06
63343;BME280;49465;57.664;39.686;2023-12-20T06:48:41;98140.97;;;4.93;58.16
63343;BME280;49465;57.664;39.686;2023-12-20T06:51:16;98148.09;;;5.03;58.43
63343;BME280;49465;57.664;39.686;2023-12-20T06:53:48;98149.41;;;5.31;57.44
63343;BME280;49465;57.664;39.686;2023-12-20T06:56:17;98160.72;;;5.07;57.56
63343;BME280;49465;57.664;39.686;2023-12-20T06:58:46;98163.59;;;5.15;57.64
63343;BME280;49465;57.664;39.686;2023-12-20T07:01:20;98170.78;;;5.34;57.21
63343;BME280;49465;57.664;39.686;2023-12-20T07:03:51;98164.53;;;5.26;57.05
63343;BME280;49465;57.664;39.686;2023-12-20T07:06:20;98157.78;;;5.34;57.13
63343;BME280;49465;57.664;39.686;2023-12-20T07:08:49;98159.56;;;5.34;57.56
63343;BME280;49465;57.664;39.686;2023-12-20T07:11:16;98154.22;;;5.47;56.45
63343;BME280;49465;57.664;39.686;2023-12-20T07:13:42;98156.03;;;5.58;56.73
63343;BME280;49465;57.664;39.686;2023-12-20T07:16:12;98160.84;;;5.17;58.13
63343;BME280;49465;57.664;39.686;2023-12-20T07:18:39;98157.31;;;5.52;56.77
63343;BME280;49465;57.664;39.686;2023-12-20T07:21:17;98168.69;;;5.51;57.08
63343;BME280;49465;57.664;39.686;2023-12-20T07:23:46;98154.34;;;5.23;57.56
63343;BME280;49465;57.664;39.686;2023-12-20T07:26:23;98165.59;;;5.57;56.63
63343;BME280;49465;57.664;39.686;2023-12-20T07:28:57;98155.41;;;5.43;57.49
63343;BME280;49465;57.664;39.686;2023-12-20T07:31:24;98159.81;;;5.20;58.07
63343;BME280;49465;57.664;39.686;2023-12-20T07:33:56;98155.28;;;4.99;58.22
63343;BME280;49465;57.664;39.686;2023-12-20T07:36:23;98154.97;;;5.38;57.42
63343;BME280;49465;57.664;39.686;2023-12-20T07:38:55;98166.53;;;5.22;57.97
63343;BME280;49465;57.664;39.686;2023-12-20T07:41:24;98163.81;;;5.24;57.71
63343;BME280;49465;57.664;39.686;2023-12-20T07:43:53;98158.38;;;5.38;57.18
63343;BME280;49465;57.664;39.686;2023-12-20T07:46:22;98163.69;;;5.37;58.07
63343;BME280;49465;57.664;39.686;2023-12-20T07:48:53;98169.47;;;5.74;56.54
63343;BME280;49465;57.664;39.686;2023-12-20T07:51:23;98155.91;;;5.37;57.48
63343;BME280;49465;57.664;39.686;2023-12-20T07:53:52;98162.63;;;5.28;57.60
63343;BME280;49465;57.664;39.686;2023-12-20T07:56:23;98161.41;;;5.09;58.36
63343;BME280;49465;57.664;39.686;2023-12-20T07:58:55;98161.56;;;5.30;57.81
63343;BME280;49465;57.664;39.686;2023-12-20T08:01:21;98157.56;;;5.38;57.82
63343;BME280;49465;57.664;39.686;2023-12-20T08:03:51;98158.88;;;5.43;56.89
63343;BME280;49465;57.664;39.686;2023-12-20T08:06:17;98152.50;;;5.47;56.59
63343;BME280;49465;57.664;39.686;2023-12-20T08:08:44;98149.41;;;5.53;57.08
63343;BME280;49465;57.664;39.686;2023-12-20T08:11:13;98157.69;;;5.47;57.09
63343;BME280;49465;57.664;39.686;2023-12-20T08:13:42;98168.78;;;5.61;56.81
63343;BME280;49465;57.664;39.686;2023-12-20T08:16:11;98163.09;;;5.33;57.98
63343;BME280;49465;57.664;39.686;2023-12-20T08:18:39;98162.25;;;5.66;56.18
63343;BME280;49465;57.664;39.686;2023-12-20T08:21:06;98166.97;;;5.84;55.88
63343;BME280;49465;57.664;39.686;2023-12-20T08:23:41;98161.94;;;5.71;56.81
63343;BME280;49465;57.664;39.686;2023-12-20T08:26:09;98171.13;;;5.86;56.88
63343;BME280;49465;57.664;39.686;2023-12-20T08:28:44;98158.72;;;5.56;57.16
63343;BME280;49465;57.664;39.686;2023-12-20T08:31:19;98171.03;;;5.65;56.86
63343;BME280;49465;57.664;39.686;2023-12-20T08:33:52;98151.63;;;5.47;57.24
63343;BME280;49465;57.664;39.686;2023-12-20T08:36:23;98161.56;;;5.19;58.17
63343;BME280;49465;57.664;39.686;2023-12-20T08:38:53;98162.63;;;5.62;56.25
63343;BME280;49465;57.664;39.686;2023-12-20T08:41:19;98157.41;;;5.96;55.75
63343;BME280;49465;57.664;39.686;2023-12-20T08:43:46;98158.03;;;5.54;56.92
63343;BME280;49465;57.664;39.686;2023-12-20T08:46:16;98170.44;;;5.62;56.71
63343;BME280;49465;57.664;39.686;2023-12-20T08:48:45;98161.00;;;5.61;56.55
63343;BME280;49465;57.664;39.686;2023-12-20T08:51:16;98180.38;;;5.45;56.42
63343;BME280;49465;57.664;39.686;2023-12-20T08:53:48;98180.34;;;5.23;57.46
63343;BME280;49465;57.664;39.686;2023-12-20T08:56:15;98175.66;;;5.39;57.50
63343;BME280;49465;57.664;39.686;2023-12-20T08:59:00;98169.13;;;5.67;56.81
63343;BME280;49465;57.664;39.686;2023-12-20T09:01:29;98171.13;;;5.75;56.89
63343;BME280;49465;57.664;39.686;2023-12-20T09:04:01;98169.81;;;6.03;56.20
63343;BME280;49465;57.664;39.686;2023-12-20T09:06:30;98193.56;;;5.76;56.48
63343;BME280;49465;57.664;39.686;2023-12-20T09:08:56;98187.81;;;5.61;57.04
63343;BME280;49465;57.664;39.686;2023-12-20T09:11:23;98175.63;;;5.84;56.15
63343;BME280;49465;57.664;39.686;2023-12-20T09:13:52;98182.25;;;5.77;56.89
63343;BME280;49465;57.664;39.686;2023-12-20T09:16:18;98184.13;;;5.64;57.01
63343;BME280;49465;57.664;39.686;2023-12-20T09:18:48;98167.34;;;5.68;57.19
63343;BME280;49465;57.664;39.686;2023-12-20T09:21:16;98167.22;;;5.47;57.34
63343;BME280;49465;57.664;39.686;2023-12-20T09:23:46;98165.69;;;5.78;57.11
63343;BME280;49465;57.664;39.686;2023-12-20T09:26:12;98172.22;;;5.50;57.56
63343;BME280;49465;57.664;39.686;2023-12-20T09:28:42;98181.41;;;5.43;57.76
63343;BME280;49465;57.664;39.686;2023-12-20T09:31:13;98186.50;;;5.67;57.07
63343;BME280;49465;57.664;39.686;2023-12-20T09:33:48;98177.88;;;6.00;56.30
63343;BME280;49465;57.664;39.686;2023-12-20T09:36:17;98171.69;;;6.12;55.42
63343;BME280;49465;57.664;39.686;2023-12-20T09:38:48;98171.84;;;5.88;55.88
63343;BME280;49465;57.664;39.686;2023-12-20T09:41:14;98171.50;;;5.59;56.92
63343;BME280;49465;57.664;39.686;2023-12-20T09:43:41;98159.81;;;5.42;57.91
63343;BME280;49465;57.664;39.686;2023-12-20T09:46:16;98167.34;;;5.79;56.54
63343;BME280;49465;57.664;39.686;2023-12-20T09:48:52;98157.66;;;5.70;56.11
63343;BME280;49465;57.664;39.686;2023-12-20T09:51:20;98156.50;;;5.63;56.27
63343;BME280;49465;57.664;39.686;2023-12-20T09:53:53;98162.63;;;5.73;55.79
63343;BME280;49465;57.664;39.686;2023-12-20T09:56:20;98158.84;;;5.77;56.12
63343;BME280;49465;57.664;39.686;2023-12-20T09:58:50;98160.03;;;5.62;56.35
63343;BME280;49465;57.664;39.686;2023-12-20T10:01:23;98172.88;;;6.08;54.90
63343;BME280;49465;57.664;39.686;2023-12-20T10:03:55;98179.81;;;6.19;54.96
63343;BME280;49465;57.664;39.686;2023-12-20T10:06:25;98178.09;;;6.08;55.31
63343;BME280;49465;57.664;39.686;2023-12-20T10:09:03;98178.56;;;5.80;56.45
63343;BME280;49465;57.664;39.686;2023-12-20T10:11:30;98175.81;;;6.15;54.98
63343;BME280;49465;57.664;39.686;2023-12-20T10:14:02;98185.91;;;5.97;55.56
63343;BME280;49465;57.664;39.686;2023-12-20T10:16:29;98176.66;;;5.93;55.63
63343;BME280;49465;57.664;39.686;2023-12-20T10:18:56;98175.41;;;5.65;56.31
63343;BME280;49465;57.664;39.686;2023-12-20T10:21:23;98182.97;;;5.45;56.75
63343;BME280;49465;57.664;39.686;2023-12-20T10:23:53;98186.59;;;5.88;55.94
63343;BME280;49465;57.664;39.686;2023-12-20T10:26:26;98208.59;;;5.84;56.16
63343;BME280;49465;57.664;39.686;2023-12-20T10:29:00;98194.31;;;5.55;56.95
63343;BME280;49465;57.664;39.686;2023-12-20T10:31:32;98200.22;;;5.69;56.12
63343;BME280;49465;57.664;39.686;2023-12-20T10:34:03;98181.28;;;6.12;55.48
63343;BME280;49465;57.664;39.686;2023-12-20T10:36:31;98185.78;;;5.87;55.82
63343;BME280;49465;57.664;39.686;2023-12-20T10:38:58;98189.91;;;5.90;55.86
63343;BME280;49465;57.664;39.686;2023-12-20T10:41:34;98193.34;;;5.79;56.38
63343;BME280;49465;57.664;39.686;2023-12-20T10:44:11;98195.03;;;5.80;56.48
63343;BME280;49465;57.664;39.686;2023-12-20T10:46:40;98195.94;;;6.02;55.78
63343;BME280;49465;57.664;39.686;2023-12-20T10:49:17;98192.63;;;6.11;55.33
63343;BME280;49465;57.664;39.686;2023-12-20T10:51:51;98198.78;;;6.10;55.68
63343;BME280;49465;57.664;39.686;2023-12-20T10:54:22;98199.97;;;5.94;55.37
63343;BME280;49465;57.664;39.686;2023-12-20T10:56:55;98201.97;;;6.13;55.58
63343;BME280;49465;57.664;39.686;2023-12-20T10:59:24;98203.50;;;6.05;55.22
63343;BME280;49465;57.664;39.686;2023-12-20T11:01:54;98206.34;;;6.02;55.58
63343;BME280;49465;57.664;39.686;2023-12-20T11:04:36;98205.41;;;6.03;55.41
63343;BME280;49465;57.664;39.686;2023-12-20T11:07:52;98206.81;;;6.07;55.55
63343;BME280;49465;57.664;39.686;2023-12-20T11:10:20;98213.22;;;6.14;54.79
63343;BME280;49465;57.664;39.686;2023-12-20T11:13:32;98225.63;;;6.54;54.68
63343;BME280;49465;57.664;39.686;2023-12-20T11:16:03;98225.00;;;6.29;54.20
63343;BME280;49465;57.664;39.686;2023-12-20T11:18:36;98215.69;;;6.16;54.71
63343;BME280;49465;57.664;39.686;2023-12-20T11:21:05;98214.63;;;6.07;54.98
63343;BME280;49465;57.664;39.686;2023-12-20T11:23:38;98221.00;;;6.25;54.73
63343;BME280;49465;57.664;39.686;2023-12-20T11:26:05;98203.00;;;6.22;54.38
63343;BME280;49465;57.664;39.686;2023-12-20T11:28:31;98212.38;;;6.13;54.18
63343;BME280;49465;57.664;39.686;2023-12-20T11:31:04;98215.53;;;6.28;53.86
63343;BME280;49465;57.664;39.686;2023-12-20T11:33:38;98216.41;;;6.06;55.31
63343;BME280;49465;57.664;39.686;2023-12-20T11:36:14;98215.91;;;6.24;54.73
63343;BME280;49465;57.664;39.686;2023-12-20T11:39:20;98224.31;;;6.05;55.48
63343;BME280;49465;57.664;39.686;2023-12-20T11:41:55;98228.59;;;6.06;54.87
63343;BME280;49465;57.664;39.686;2023-12-20T11:44:26;98233.31;;;6.12;54.24
63343;BME280;49465;57.664;39.686;2023-12-20T11:46:56;98238.50;;;6.67;53.82
63343;BME280;49465;57.664;39.686;2023-12-20T11:49:25;98235.59;;;6.49;53.09
63343;BME280;49465;57.664;39.686;2023-12-20T11:51:58;98231.75;;;6.21;53.76
63343;BME280;49465;57.664;39.686;2023-12-20T11:54:36;98242.06;;;6.11;54.19
63343;BME280;49465;57.664;39.686;2023-12-20T11:57:07;98234.00;;;6.25;53.99
63343;BME280;49465;57.664;39.686;2023-12-20T11:59:39;98242.91;;;6.00;53.89
63343;BME280;49465;57.664;39.686;2023-12-20T12:02:06;98243.94;;;6.31;52.96
63343;BME280;49465;57.664;39.686;2023-12-20T12:04:35;98242.97;;;6.21;53.11
63343;BME280;49465;57.664;39.686;2023-12-20T12:07:02;98229.97;;;6.21;53.17
63343;BME280;49465;57.664;39.686;2023-12-20T12:09:34;98240.31;;;6.55;52.66
63343;BME280;49465;57.664;39.686;2023-12-20T12:12:07;98236.13;;;6.20;53.17
63343;BME280;49465;57.664;39.686;2023-12-20T12:14:34;98236.03;;;6.22;53.33
63343;BME280;49465;57.664;39.686;2023-12-20T12:17:03;98241.13;;;5.67;54.29
63343;BME280;49465;57.664;39.686;2023-12-20T12:19:32;98236.84;;;6.00;53.46
63343;BME280;49465;57.664;39.686;2023-12-20T12:22:25;98258.69;;;6.42;53.16
63343;BME280;49465;57.664;39.686;2023-12-20T12:24:53;98263.94;;;6.20;52.82
63343;BME280;49465;57.664;39.686;2023-12-20T12:27:26;98262.97;;;6.21;53.29
63343;BME280;49465;57.664;39.686;2023-12-20T12:30:04;98259.75;;;6.40;52.76
63343;BME280;49465;57.664;39.686;2023-12-20T12:32:35;98256.38;;;6.05;53.88
63343;BME280;49465;57.664;39.686;2023-12-20T12:35:07;98267.03;;;6.02;52.88
63343;BME280;49465;57.664;39.686;2023-12-20T12:37:38;98264.41;;;5.91;52.91
63343;BME280;49465;57.664;39.686;2023-12-20T12:40:14;98270.44;;;6.25;52.18
63343;BME280;49465;57.664;39.686;2023-12-20T12:42:45;98274.97;;;6.56;51.24
63343;BME280;49465;57.664;39.686;2023-12-20T12:45:20;98284.31;;;6.58;51.55
63343;BME280;49465;57.664;39.686;2023-12-20T12:47:47;98273.75;;;6.27;51.93
63343;BME280;49465;57.664;39.686;2023-12-20T12:50:16;98273.97;;;6.02;52.12
63343;BME280;49465;57.664;39.686;2023-12-20T12:52:50;98276.13;;;6.08;52.36
63343;BME280;49465;57.664;39.686;2023-12-20T12:55:20;98281.56;;;6.27;51.94
63343;BME280;49465;57.664;39.686;2023-12-20T12:57:52;98289.97;;;6.08;52.18
63343;BME280;49465;57.664;39.686;2023-12-20T13:00:23;98288.50;;;6.38;51.25
63343;BME280;49465;57.664;39.686;2023-12-20T13:02:56;98279.00;;;6.48;51.13
63343;BME280;49465;57.664;39.686;2023-12-20T13:05:28;98287.38;;;6.08;51.84
63343;BME280;49465;57.664;39.686;2023-12-20T13:08:01;98287.47;;;6.07;52.16
63343;BME280;49465;57.664;39.686;2023-12-20T13:10:32;98277.78;;;6.20;51.59
63343;BME280;49465;57.664;39.686;2023-12-20T13:13:01;98288.50;;;6.27;50.95
63343;BME280;49465;57.664;39.686;2023-12-20T13:15:30;98293.50;;;6.07;51.52